createdAt,value
2023-05-17T00:00:27.179Z,126.91
2023-05-17T00:01:26.229Z,126.18
2023-05-17T00:02:27.294Z,125.47
2023-05-17T00:03:26.436Z,126.11
2023-05-17T00:04:26.368Z,123.14
2023-05-17T00:05:27.473Z,122.63
2023-05-17T00:06:26.492Z,124.82
2023-05-17T00:07:27.417Z,125.55
2023-05-17T00:08:26.461Z,124.30
2023-05-17T00:09:26.504Z,122.67
2023-05-17T00:10:26.529Z,122.95
2023-05-17T00:11:27.570Z,121.16
2023-05-17T00:12:27.612Z,124.57
2023-05-17T00:13:26.624Z,123.09
2023-05-17T00:14:26.672Z,122.71
2023-05-17T00:15:27.812Z,121.07
2023-05-17T00:16:26.723Z,118.66
2023-05-17T00:17:27.820Z,114.36
2023-05-17T00:18:26.841Z,116.65
2023-05-17T00:19:27.988Z,118.41
2023-05-17T00:20:26.836Z,117.07
2023-05-17T00:21:26.886Z,112.84
2023-05-17T00:22:27.919Z,118.38
2023-05-17T00:23:26.960Z,120.25
2023-05-17T00:24:27.970Z,116.95
2023-05-17T00:25:28.202Z,113.30
2023-05-17T00:26:28.057Z,117.01
2023-05-17T00:27:27.098Z,117.66
2023-05-17T00:28:27.102Z,118.05
2023-05-17T00:29:28.151Z,117.03
2023-05-17T00:30:28.178Z,118.00
2023-05-17T00:31:28.208Z,115.02
2023-05-17T00:32:28.262Z,113.28
2023-05-17T00:33:28.263Z,113.83
2023-05-17T00:34:27.324Z,113.86
2023-05-17T00:35:28.663Z,113.89
2023-05-17T00:36:27.373Z,109.64
2023-05-17T00:37:28.408Z,115.38
2023-05-17T00:38:28.438Z,116.10
2023-05-17T00:39:27.472Z,113.08
2023-05-17T00:40:27.534Z,113.51
2023-05-17T00:41:27.583Z,112.62
2023-05-17T00:42:28.596Z,115.09
2023-05-17T00:43:28.633Z,111.82
2023-05-17T00:44:28.678Z,115.72
2023-05-17T00:45:28.960Z,115.50
2023-05-17T00:46:28.735Z,114.99
2023-05-17T00:47:28.886Z,115.31
2023-05-17T00:48:28.967Z,114.32
2023-05-17T00:49:27.867Z,112.81
2023-05-17T00:50:28.884Z,113.68
2023-05-17T00:51:29.032Z,113.21
2023-05-17T00:52:27.958Z,113.96
2023-05-17T00:53:27.999Z,111.53
2023-05-17T00:54:29.057Z,113.24
2023-05-17T00:55:28.376Z,114.72
2023-05-17T00:56:29.105Z,116.22
2023-05-17T00:57:28.153Z,114.22
2023-05-17T00:58:28.179Z,114.38
2023-05-17T00:59:29.225Z,114.40
2023-05-17T01:00:28.248Z,111.98
2023-05-17T01:01:29.306Z,110.25
2023-05-17T01:02:29.437Z,111.93
2023-05-17T01:03:29.508Z,111.69
2023-05-17T01:04:28.434Z,111.01
2023-05-17T01:05:29.714Z,112.40
2023-05-17T01:06:28.465Z,113.79
2023-05-17T01:07:28.620Z,115.36
2023-05-17T01:08:28.560Z,112.61
2023-05-17T01:09:29.607Z,112.54
2023-05-17T01:10:29.649Z,114.06
2023-05-17T01:11:29.709Z,112.69
2023-05-17T01:12:28.743Z,111.45
2023-05-17T01:13:29.891Z,111.19
2023-05-17T01:14:28.820Z,109.23
2023-05-17T01:15:29.083Z,110.39
2023-05-17T01:16:29.885Z,109.23
2023-05-17T01:17:30.025Z,110.40
2023-05-17T01:18:30.072Z,111.82
2023-05-17T01:19:30.187Z,108.10
2023-05-17T01:20:30.115Z,108.67
2023-05-17T01:21:30.097Z,107.00
2023-05-17T01:22:30.137Z,109.10
2023-05-17T01:23:29.285Z,106.97
2023-05-17T01:24:30.214Z,111.04
2023-05-17T01:25:30.438Z,108.84
2023-05-17T01:26:30.289Z,107.88
2023-05-17T01:27:30.331Z,110.06
2023-05-17T01:28:29.379Z,109.48
2023-05-17T01:29:29.438Z,106.49
2023-05-17T01:30:29.472Z,108.50
2023-05-17T01:31:30.513Z,105.35
2023-05-17T01:32:30.653Z,106.80
2023-05-17T01:33:30.720Z,106.46
2023-05-17T01:34:29.650Z,106.98
2023-05-17T01:35:30.033Z,107.66
2023-05-17T01:36:29.738Z,106.90
2023-05-17T01:37:30.796Z,107.09
2023-05-17T01:38:30.826Z,106.70
2023-05-17T01:39:29.970Z,107.40
2023-05-17T01:40:30.907Z,107.09
2023-05-17T01:41:30.961Z,109.25
2023-05-17T01:42:29.990Z,107.86
2023-05-17T01:43:30.053Z,110.64
2023-05-17T01:44:31.306Z,107.92
2023-05-17T01:45:30.238Z,108.61
2023-05-17T01:46:31.081Z,107.81
2023-05-17T01:47:31.104Z,107.58
2023-05-17T01:48:30.116Z,107.18
2023-05-17T01:49:30.051Z,103.61
2023-05-17T01:50:30.037Z,106.79
2023-05-17T01:51:30.055Z,104.04
2023-05-17T01:52:30.017Z,103.48
2023-05-17T01:53:31.002Z,104.27
2023-05-17T01:54:30.024Z,103.19
2023-05-17T01:55:30.275Z,103.04
2023-05-17T01:56:31.003Z,104.39
2023-05-17T01:57:29.976Z,104.45
2023-05-17T01:58:30.982Z,102.79
2023-05-17T01:59:29.982Z,106.17
2023-05-17T02:00:30.972Z,100.83
2023-05-17T02:01:29.961Z,103.36
2023-05-17T02:02:30.995Z,105.36
2023-05-17T02:03:29.984Z,104.47
2023-05-17T02:04:29.943Z,102.13
2023-05-17T02:05:30.344Z,102.25
2023-05-17T02:06:30.909Z,106.05
2023-05-17T02:07:30.913Z,105.48
2023-05-17T02:08:29.902Z,108.68
2023-05-17T02:09:29.903Z,108.14
2023-05-17T02:10:29.885Z,106.81
2023-05-17T02:11:30.032Z,102.08
2023-05-17T02:12:30.883Z,100.97
2023-05-17T02:13:30.898Z,104.13
2023-05-17T02:14:29.935Z,104.08
2023-05-17T02:15:31.136Z,101.25
2023-05-17T02:16:30.028Z,101.19
2023-05-17T02:17:30.175Z,98.37
2023-05-17T02:18:30.247Z,100.62
2023-05-17T02:19:31.315Z,97.83
2023-05-17T02:20:30.206Z,97.56
2023-05-17T02:21:31.274Z,97.97
2023-05-17T02:22:31.301Z,98.43
2023-05-17T02:23:31.342Z,97.50
2023-05-17T02:24:31.401Z,100.04
2023-05-17T02:25:31.595Z,97.83
2023-05-17T02:26:31.476Z,98.87
2023-05-17T02:27:30.624Z,101.74
2023-05-17T02:28:30.569Z,99.20
2023-05-17T02:29:31.636Z,99.52
2023-05-17T02:30:30.665Z,101.64
2023-05-17T02:31:30.712Z,103.49
2023-05-17T02:32:30.790Z,99.74
2023-05-17T02:33:31.896Z,98.80
2023-05-17T02:34:31.876Z,98.60
2023-05-17T02:35:31.081Z,98.96
2023-05-17T02:36:30.953Z,97.20
2023-05-17T02:37:32.021Z,98.45
2023-05-17T02:38:31.048Z,97.26
2023-05-17T02:39:31.169Z,95.53
2023-05-17T02:40:31.150Z,97.35
2023-05-17T02:41:32.158Z,99.05
2023-05-17T02:42:32.240Z,97.56
2023-05-17T02:43:32.291Z,96.85
2023-05-17T02:44:31.328Z,99.17
2023-05-17T02:45:31.406Z,97.59
2023-05-17T02:46:32.429Z,99.09
2023-05-17T02:47:32.534Z,101.69
2023-05-17T02:48:32.508Z,99.67
2023-05-17T02:49:32.541Z,99.89
2023-05-17T02:50:32.604Z,96.55
2023-05-17T02:51:31.650Z,95.58
2023-05-17T02:52:31.704Z,96.94
2023-05-17T02:53:32.741Z,97.67
2023-05-17T02:54:31.810Z,99.05
2023-05-17T02:55:31.829Z,100.04
2023-05-17T02:56:32.895Z,99.24
2023-05-17T02:57:32.929Z,98.12
2023-05-17T02:58:32.984Z,97.81
2023-05-17T02:59:32.147Z,101.36
2023-05-17T03:00:33.065Z,100.01
2023-05-17T03:01:32.129Z,100.99
2023-05-17T03:02:32.237Z,100.00
2023-05-17T03:03:32.493Z,101.56
2023-05-17T03:04:33.335Z,98.73
2023-05-17T03:05:32.336Z,101.34
2023-05-17T03:06:33.377Z,101.59
2023-05-17T03:07:33.433Z,99.95
2023-05-17T03:08:33.478Z,98.61
2023-05-17T03:09:32.542Z,97.54
2023-05-17T03:10:33.579Z,95.73
2023-05-17T03:11:33.617Z,94.19
2023-05-17T03:12:33.674Z,97.09
2023-05-17T03:13:33.731Z,96.62
2023-05-17T03:14:32.791Z,96.95
2023-05-17T03:15:32.927Z,101.34
2023-05-17T03:16:33.893Z,97.82
2023-05-17T03:17:32.987Z,95.04
2023-05-17T03:18:33.120Z,96.54
2023-05-17T03:19:34.042Z,97.38
2023-05-17T03:20:33.098Z,97.32
2023-05-17T03:21:33.125Z,94.88
2023-05-17T03:22:33.173Z,96.04
2023-05-17T03:23:34.250Z,96.83
2023-05-17T03:24:33.266Z,94.35
2023-05-17T03:25:34.323Z,93.51
2023-05-17T03:26:33.368Z,95.25
2023-05-17T03:27:33.536Z,96.60
2023-05-17T03:28:34.482Z,95.69
2023-05-17T03:29:33.523Z,96.04
2023-05-17T03:30:33.627Z,95.60
2023-05-17T03:31:34.746Z,95.59
2023-05-17T03:32:33.831Z,94.78
2023-05-17T03:33:33.849Z,94.89
2023-05-17T03:34:34.805Z,95.01
2023-05-17T03:35:34.841Z,94.62
2023-05-17T03:36:34.873Z,94.53
2023-05-17T03:37:34.935Z,90.89
2023-05-17T03:38:34.970Z,92.52
2023-05-17T03:39:35.036Z,92.22
2023-05-17T03:40:35.078Z,93.97
2023-05-17T03:41:34.121Z,92.91
2023-05-17T03:42:34.181Z,93.21
2023-05-17T03:43:34.229Z,94.31
2023-05-17T03:44:35.279Z,96.62
2023-05-17T03:45:34.331Z,96.81
2023-05-17T03:46:35.391Z,98.01
2023-05-17T03:47:35.579Z,95.33
2023-05-17T03:48:36.137Z,91.99
2023-05-17T03:49:35.548Z,93.41
2023-05-17T03:50:35.575Z,90.61
2023-05-17T03:51:34.623Z,93.21
2023-05-17T03:52:34.730Z,94.23
2023-05-17T03:53:35.732Z,96.18
2023-05-17T03:54:34.790Z,95.56
2023-05-17T03:55:35.841Z,96.45
2023-05-17T03:56:34.905Z,91.83
2023-05-17T03:57:35.966Z,92.95
2023-05-17T03:58:36.009Z,91.95
2023-05-17T03:59:36.081Z,94.08
2023-05-17T04:00:35.118Z,91.56
2023-05-17T04:01:36.172Z,94.62
2023-05-17T04:02:35.252Z,93.00
2023-05-17T04:03:35.429Z,93.05
2023-05-17T04:04:35.378Z,93.44
2023-05-17T04:05:35.400Z,93.28
2023-05-17T04:06:35.448Z,89.62
2023-05-17T04:07:36.498Z,86.72
2023-05-17T04:08:36.550Z,90.64
2023-05-17T04:09:36.611Z,91.56
2023-05-17T04:10:35.674Z,92.84
2023-05-17T04:11:36.721Z,91.93
2023-05-17T04:12:36.766Z,92.71
2023-05-17T04:13:36.829Z,88.71
2023-05-17T04:14:35.871Z,88.10
2023-05-17T04:15:35.946Z,90.51
2023-05-17T04:16:38.998Z,91.55
2023-05-17T04:17:36.994Z,93.25
2023-05-17T04:18:37.127Z,93.77
2023-05-17T04:19:37.093Z,91.87
2023-05-17T04:20:36.963Z,90.75
2023-05-17T04:21:35.952Z,89.34
2023-05-17T04:22:35.948Z,88.66
2023-05-17T04:23:36.929Z,90.96
2023-05-17T04:24:36.927Z,91.44
2023-05-17T04:25:36.933Z,89.26
2023-05-17T04:26:35.910Z,91.88
2023-05-17T04:27:35.905Z,88.34
2023-05-17T04:28:35.897Z,87.85
2023-05-17T04:29:36.876Z,90.36
2023-05-17T04:30:36.880Z,88.19
2023-05-17T04:31:36.857Z,88.45
2023-05-17T04:32:36.952Z,90.79
2023-05-17T04:33:36.938Z,88.92
2023-05-17T04:34:36.863Z,88.96
2023-05-17T04:35:36.996Z,90.51
2023-05-17T04:36:36.828Z,88.70
2023-05-17T04:37:35.818Z,84.38
2023-05-17T04:38:35.831Z,88.48
2023-05-17T04:39:35.888Z,84.64
2023-05-17T04:40:35.935Z,84.88
2023-05-17T04:41:36.999Z,82.20
2023-05-17T04:42:37.078Z,83.70
2023-05-17T04:43:37.104Z,86.16
2023-05-17T04:44:36.205Z,87.16
2023-05-17T04:45:37.249Z,84.94
2023-05-17T04:46:37.283Z,86.40
2023-05-17T04:47:36.424Z,86.68
2023-05-17T04:48:36.523Z,86.99
2023-05-17T04:49:37.473Z,86.87
2023-05-17T04:50:36.483Z,85.92
2023-05-17T04:51:37.568Z,84.89
2023-05-17T04:52:37.597Z,83.20
2023-05-17T04:53:36.662Z,83.98
2023-05-17T04:54:37.716Z,85.13
2023-05-17T04:55:37.858Z,84.87
2023-05-17T04:56:36.850Z,85.78
2023-05-17T04:57:37.896Z,87.44
2023-05-17T04:58:37.957Z,88.44
2023-05-17T04:59:38.027Z,88.77
2023-05-17T05:00:38.166Z,89.83
2023-05-17T05:01:38.137Z,87.26
2023-05-17T05:02:37.231Z,87.54
2023-05-17T05:03:38.318Z,86.18
2023-05-17T05:04:38.370Z,84.25
2023-05-17T05:05:38.378Z,85.38
2023-05-17T05:06:38.444Z,86.30
2023-05-17T05:07:38.546Z,82.51
2023-05-17T05:08:37.559Z,87.12
2023-05-17T05:09:38.641Z,87.90
2023-05-17T05:10:38.702Z,85.95
2023-05-17T05:11:38.772Z,87.46
2023-05-17T05:12:37.859Z,87.33
2023-05-17T05:13:38.926Z,87.39
2023-05-17T05:14:38.963Z,88.64
2023-05-17T05:15:38.011Z,84.52
2023-05-17T05:16:39.090Z,84.85
2023-05-17T05:17:39.356Z,87.35
2023-05-17T05:18:38.361Z,88.74
2023-05-17T05:19:38.310Z,84.88
2023-05-17T05:20:38.356Z,86.13
2023-05-17T05:21:38.400Z,85.29
2023-05-17T05:22:38.462Z,86.38
2023-05-17T05:23:38.645Z,91.19
2023-05-17T05:24:39.589Z,89.36
2023-05-17T05:25:38.659Z,89.32
2023-05-17T05:26:39.732Z,85.48
2023-05-17T05:27:38.785Z,89.53
2023-05-17T05:28:38.840Z,86.96
2023-05-17T05:29:39.892Z,91.97
2023-05-17T05:30:38.940Z,84.11
2023-05-17T05:31:38.991Z,80.34
2023-05-17T05:32:39.182Z,85.02
2023-05-17T05:33:39.189Z,80.78
2023-05-17T05:34:40.156Z,78.59
2023-05-17T05:35:40.215Z,77.87
2023-05-17T05:36:39.256Z,79.54
2023-05-17T05:37:40.313Z,76.61
2023-05-17T05:38:40.383Z,81.37
2023-05-17T05:39:40.560Z,83.69
2023-05-17T05:40:40.738Z,85.86
2023-05-17T05:41:40.508Z,83.50
2023-05-17T05:42:40.544Z,85.65
2023-05-17T05:43:40.597Z,85.55
2023-05-17T05:44:39.614Z,81.64
2023-05-17T05:45:40.654Z,82.30
2023-05-17T05:46:40.692Z,81.09
2023-05-17T05:47:40.833Z,79.09
2023-05-17T05:48:40.747Z,79.83
2023-05-17T05:49:39.761Z,78.42
2023-05-17T05:50:40.789Z,77.17
2023-05-17T05:51:39.828Z,80.09
2023-05-17T05:52:39.836Z,78.08
2023-05-17T05:53:39.869Z,80.05
2023-05-17T05:54:40.879Z,81.96
2023-05-17T05:55:41.048Z,81.90
2023-05-17T05:56:39.912Z,78.87
2023-05-17T05:57:39.919Z,87.03
2023-05-17T05:58:40.905Z,85.39
2023-05-17T05:59:40.960Z,92.40
2023-05-17T06:00:40.277Z,91.68
2023-05-17T06:01:41.884Z,94.14
2023-05-17T06:02:40.208Z,99.59
2023-05-17T06:03:41.206Z,101.73
2023-05-17T06:04:45.611Z,104.34
2023-05-17T06:05:40.850Z,104.63
2023-05-17T06:06:41.380Z,106.02
2023-05-17T06:07:41.221Z,109.65
2023-05-17T06:08:41.216Z,114.99
2023-05-17T06:09:41.247Z,125.40
2023-05-17T06:10:41.220Z,126.70
2023-05-17T06:11:40.498Z,132.15
2023-05-17T06:12:41.204Z,133.45
2023-05-17T06:13:41.193Z,138.15
2023-05-17T06:14:40.198Z,144.42
2023-05-17T06:15:40.200Z,144.99
2023-05-17T06:16:40.168Z,153.84
2023-05-17T06:17:41.232Z,153.54
2023-05-17T06:18:41.258Z,158.87
2023-05-17T06:19:40.321Z,165.77
2023-05-17T06:20:41.165Z,174.90
2023-05-17T06:21:41.139Z,178.74
2023-05-17T06:22:40.156Z,187.21
2023-05-17T06:23:40.174Z,189.39
2023-05-17T06:24:41.108Z,193.43
2023-05-17T06:25:40.139Z,202.37
2023-05-17T06:26:41.125Z,206.49
2023-05-17T06:27:41.316Z,208.34
2023-05-17T06:28:40.093Z,212.84
2023-05-17T06:29:41.059Z,214.74
2023-05-17T06:30:40.067Z,220.74
2023-05-17T06:31:41.039Z,220.33
2023-05-17T06:32:41.093Z,224.48
2023-05-17T06:33:41.068Z,225.63
2023-05-17T06:34:41.062Z,230.03
2023-05-17T06:35:54.689Z,231.93
2023-05-17T06:36:41.020Z,232.30
2023-05-17T06:37:41.023Z,233.13
2023-05-17T06:38:40.988Z,236.45
2023-05-17T06:39:40.088Z,240.90
2023-05-17T06:40:40.978Z,250.60
2023-05-17T06:41:39.980Z,249.74
2023-05-17T06:42:39.973Z,246.98
2023-05-17T06:43:39.992Z,248.25
2023-05-17T06:44:40.939Z,249.57
2023-05-17T06:45:40.595Z,248.97
2023-05-17T06:46:39.944Z,247.68
2023-05-17T06:47:40.949Z,245.36
2023-05-17T06:48:41.010Z,246.00
2023-05-17T06:49:39.909Z,250.00
2023-05-17T06:50:39.921Z,246.42
2023-05-17T06:51:40.897Z,247.00
2023-05-17T06:52:39.888Z,247.07
2023-05-17T06:53:40.894Z,248.66
2023-05-17T06:54:40.875Z,246.49
2023-05-17T06:55:41.243Z,245.89
2023-05-17T06:56:40.877Z,249.69
2023-05-17T06:57:39.866Z,248.72
2023-05-17T06:58:39.861Z,247.91
2023-05-17T06:59:40.941Z,247.92
2023-05-17T07:00:39.914Z,245.92
2023-05-17T07:01:40.839Z,246.99
2023-05-17T07:02:40.958Z,248.26
2023-05-17T07:03:39.925Z,250.20
2023-05-17T07:04:39.851Z,250.00
2023-05-17T07:05:39.884Z,250.00
2023-05-17T07:06:39.784Z,248.04
2023-05-17T07:07:40.782Z,246.69
2023-05-17T07:08:40.770Z,248.62
2023-05-17T07:09:39.993Z,247.61
2023-05-17T07:10:40.815Z,247.77
2023-05-17T07:11:40.057Z,250.00
2023-05-17T07:12:40.579Z,247.48
2023-05-17T07:13:44.246Z,247.98
2023-05-17T07:14:39.951Z,248.20
2023-05-17T07:15:41.049Z,248.87
2023-05-17T07:16:40.936Z,252.17
2023-05-17T07:17:40.008Z,252.85
2023-05-17T07:18:40.001Z,263.93
2023-05-17T07:19:41.054Z,248.75
2023-05-17T07:20:41.083Z,247.82
2023-05-17T07:21:41.094Z,249.50
2023-05-17T07:22:40.148Z,247.76
2023-05-17T07:23:41.220Z,248.63
2023-05-17T07:24:41.291Z,246.59
2023-05-17T07:25:41.346Z,245.61
2023-05-17T07:26:41.406Z,249.44
2023-05-17T07:27:40.451Z,249.91
2023-05-17T07:28:41.518Z,249.66
2023-05-17T07:29:41.569Z,248.42
2023-05-17T07:30:40.613Z,248.51
2023-05-17T07:31:40.763Z,250.00
2023-05-17T07:32:41.753Z,249.36
2023-05-17T07:33:41.782Z,245.98
2023-05-17T07:34:41.987Z,248.41
2023-05-17T07:35:40.887Z,249.12
2023-05-17T07:36:40.939Z,249.62
2023-05-17T07:37:41.957Z,250.00
2023-05-17T07:38:42.007Z,246.86
2023-05-17T07:39:41.035Z,245.12
2023-05-17T07:40:42.121Z,246.82
2023-05-17T07:41:41.127Z,244.64
2023-05-17T07:42:42.179Z,245.56
2023-05-17T07:43:41.201Z,249.41
2023-05-17T07:44:42.241Z,247.93
2023-05-17T07:45:42.314Z,247.30
2023-05-17T07:46:42.388Z,249.11
2023-05-17T07:47:41.719Z,247.45
2023-05-17T07:48:41.534Z,247.07
2023-05-17T07:49:42.533Z,245.40
2023-05-17T07:50:42.768Z,243.18
2023-05-17T07:51:42.535Z,243.20
2023-05-17T07:52:42.545Z,245.90
2023-05-17T07:53:42.602Z,241.77
2023-05-17T07:54:42.578Z,243.17
2023-05-17T07:55:42.619Z,242.43
2023-05-17T07:56:41.598Z,241.56
2023-05-17T07:57:42.577Z,243.07
2023-05-17T07:58:41.574Z,241.69
2023-05-17T07:59:42.590Z,242.66
2023-05-17T08:00:41.591Z,240.28
2023-05-17T08:01:41.589Z,239.88
2023-05-17T08:02:41.669Z,239.31
2023-05-17T08:03:42.841Z,241.20
2023-05-17T08:04:42.662Z,241.24
2023-05-17T08:05:42.738Z,240.72
2023-05-17T08:06:42.720Z,239.79
2023-05-17T08:07:42.787Z,240.33
2023-05-17T08:08:41.800Z,238.27
2023-05-17T08:09:41.831Z,238.44
2023-05-17T08:10:42.861Z,240.31
2023-05-17T08:11:41.898Z,239.72
2023-05-17T08:12:42.935Z,238.20
2023-05-17T08:13:41.976Z,239.25
2023-05-17T08:14:42.020Z,239.40
2023-05-17T08:15:43.089Z,238.75
2023-05-17T08:16:42.129Z,237.94
2023-05-17T08:17:43.243Z,237.08
2023-05-17T08:18:43.605Z,236.34
2023-05-17T08:19:43.505Z,237.39
2023-05-17T08:20:43.367Z,237.49
2023-05-17T08:21:43.403Z,236.23
2023-05-17T08:22:43.468Z,237.98
2023-05-17T08:23:43.515Z,234.55
2023-05-17T08:24:42.598Z,235.42
2023-05-17T08:25:43.683Z,234.54
2023-05-17T08:26:43.697Z,235.53
2023-05-17T08:27:43.741Z,235.88
2023-05-17T08:28:43.815Z,235.82
2023-05-17T08:29:43.860Z,234.60
2023-05-17T08:30:43.086Z,234.76
2023-05-17T08:31:43.977Z,234.56
2023-05-17T08:32:44.132Z,234.19
2023-05-17T08:33:44.164Z,234.04
2023-05-17T08:34:43.178Z,235.22
2023-05-17T08:35:44.630Z,235.25
2023-05-17T08:36:44.301Z,233.62
2023-05-17T08:37:44.383Z,234.42
2023-05-17T08:38:43.403Z,233.46
2023-05-17T08:39:44.533Z,233.02
2023-05-17T08:40:43.532Z,232.44
2023-05-17T08:41:44.812Z,234.08
2023-05-17T08:42:43.648Z,232.53
2023-05-17T08:43:43.669Z,233.06
2023-05-17T08:44:44.700Z,232.21
2023-05-17T08:45:44.748Z,231.51
2023-05-17T08:46:45.282Z,230.99
2023-05-17T08:47:44.840Z,231.23
2023-05-17T08:48:44.908Z,230.91
2023-05-17T08:49:46.307Z,231.82
2023-05-17T08:50:44.876Z,232.30
2023-05-17T08:51:44.902Z,231.73
2023-05-17T08:52:44.918Z,231.52
2023-05-17T08:53:44.851Z,228.45
2023-05-17T08:54:44.840Z,231.28
2023-05-17T08:55:43.845Z,231.03
2023-05-17T08:56:44.298Z,231.99
2023-05-17T08:57:44.834Z,231.92
2023-05-17T08:58:55.470Z,231.24
2023-05-17T08:59:44.832Z,231.40
2023-05-17T09:00:44.807Z,231.41
2023-05-17T09:01:43.814Z,230.65
2023-05-17T09:02:44.934Z,230.39
2023-05-17T09:03:43.879Z,228.24
2023-05-17T09:04:43.909Z,229.61
2023-05-17T09:05:44.791Z,228.79
2023-05-17T09:06:43.765Z,227.76
2023-05-17T09:07:44.793Z,227.89
2023-05-17T09:08:43.766Z,228.13
2023-05-17T09:09:44.736Z,227.28
2023-05-17T09:10:43.726Z,228.16
2023-05-17T09:11:44.717Z,225.81
2023-05-17T09:12:44.711Z,225.32
2023-05-17T09:13:44.720Z,226.10
2023-05-17T09:14:44.722Z,223.19
2023-05-17T09:15:44.703Z,224.76
2023-05-17T09:16:44.700Z,225.94
2023-05-17T09:17:44.743Z,222.13
2023-05-17T09:18:44.870Z,222.29
2023-05-17T09:19:44.885Z,223.22
2023-05-17T09:20:44.668Z,223.93
2023-05-17T09:21:44.667Z,222.00
2023-05-17T09:22:43.651Z,220.58
2023-05-17T09:23:48.982Z,224.22
2023-05-17T09:24:44.647Z,224.32
2023-05-17T09:25:43.634Z,224.39
2023-05-17T09:26:43.695Z,224.55
2023-05-17T09:27:43.636Z,222.76
2023-05-17T09:28:43.680Z,222.06
2023-05-17T09:29:43.614Z,222.40
2023-05-17T09:30:43.594Z,222.55
2023-05-17T09:31:44.663Z,219.50
2023-05-17T09:32:44.599Z,215.11
2023-05-17T09:33:44.639Z,214.18
2023-05-17T09:34:44.580Z,200.62
2023-05-17T09:35:44.570Z,189.98
2023-05-17T09:36:43.644Z,157.97
2023-05-17T09:37:44.577Z,136.88
2023-05-17T09:38:44.624Z,120.34
2023-05-17T09:39:43.738Z,112.22
2023-05-17T09:40:43.750Z,110.32
2023-05-17T09:41:44.844Z,98.46
2023-05-17T09:42:44.866Z,95.62
2023-05-17T09:43:44.824Z,87.28
2023-05-17T09:44:44.833Z,103.38
2023-05-17T09:45:44.903Z,106.48
2023-05-17T09:46:43.929Z,111.29
2023-05-17T09:47:45.059Z,112.94
2023-05-17T09:48:44.263Z,89.35
2023-05-17T09:49:45.038Z,78.03
2023-05-17T09:50:45.065Z,87.84
2023-05-17T09:51:45.329Z,89.15
2023-05-17T09:52:45.154Z,83.04
2023-05-17T09:53:45.177Z,42.17
2023-05-17T09:54:45.264Z,34.32
2023-05-17T09:55:45.355Z,41.97
2023-05-17T09:56:44.400Z,53.62
2023-05-17T09:57:45.390Z,66.82
2023-05-17T09:58:45.444Z,72.22
2023-05-17T09:59:44.502Z,72.96
2023-05-17T10:00:44.504Z,37.67
2023-05-17T10:01:45.911Z,55.60
2023-05-17T10:02:45.677Z,36.32
2023-05-17T10:03:44.607Z,45.73
2023-05-17T10:04:44.632Z,17.89
2023-05-17T10:05:45.673Z,2.57
2023-05-17T10:06:48.102Z,30.83
2023-05-17T10:07:45.740Z,31.83
2023-05-17T10:08:45.724Z,36.56
2023-05-17T10:09:44.700Z,44.95
2023-05-17T10:10:45.700Z,57.52
2023-05-17T10:11:45.760Z,64.16
2023-05-17T10:12:44.705Z,65.36
2023-05-17T10:13:44.721Z,47.50
2023-05-17T10:14:45.813Z,54.23
2023-05-17T10:15:45.669Z,35.91
2023-05-17T10:16:45.667Z,33.58
2023-05-17T10:17:45.726Z,48.68
2023-05-17T10:18:45.741Z,43.28
2023-05-17T10:19:45.742Z,36.30
2023-05-17T10:20:45.691Z,33.82
2023-05-17T10:21:45.721Z,35.90
2023-05-17T10:22:45.618Z,35.71
2023-05-17T10:23:45.606Z,36.37
2023-05-17T10:24:45.594Z,40.48
2023-05-17T10:25:44.602Z,40.32
2023-05-17T10:26:44.601Z,39.65
2023-05-17T10:27:44.736Z,45.51
2023-05-17T10:28:45.622Z,48.87
2023-05-17T10:29:45.894Z,48.59
2023-05-17T10:30:45.646Z,50.67
2023-05-17T10:31:45.663Z,54.75
2023-05-17T10:32:45.759Z,53.11
2023-05-17T10:33:44.773Z,58.08
2023-05-17T10:34:47.508Z,62.53
2023-05-17T10:35:45.675Z,62.67
2023-05-17T10:36:44.681Z,63.41
2023-05-17T10:37:45.654Z,64.80
2023-05-17T10:38:45.630Z,67.45
2023-05-17T10:39:44.639Z,73.22
2023-05-17T10:40:45.636Z,75.36
2023-05-17T10:41:45.842Z,76.49
2023-05-17T10:42:45.623Z,80.47
2023-05-17T10:43:45.880Z,83.49
2023-05-17T10:44:45.595Z,86.90
2023-05-17T10:45:45.593Z,88.07
2023-05-17T10:46:45.598Z,89.41
2023-05-17T10:47:45.624Z,92.83
2023-05-17T10:48:44.649Z,94.63
2023-05-17T10:49:44.568Z,97.30
2023-05-17T10:50:54.533Z,99.38
2023-05-17T10:51:45.565Z,99.63
2023-05-17T10:52:45.542Z,100.25
2023-05-17T10:53:44.539Z,101.13
2023-05-17T10:54:44.634Z,103.35
2023-05-17T10:55:45.558Z,108.32
2023-05-17T10:56:44.557Z,109.56
2023-05-17T10:57:51.110Z,109.29
2023-05-17T10:58:45.514Z,109.50
2023-05-17T10:59:45.562Z,110.11
2023-05-17T11:00:45.481Z,111.51
2023-05-17T11:01:44.486Z,112.16
2023-05-17T11:02:45.495Z,117.83
2023-05-17T11:03:44.509Z,122.89
2023-05-17T11:04:44.473Z,121.07
2023-05-17T11:05:44.513Z,122.39
2023-05-17T11:06:44.591Z,125.79
2023-05-17T11:07:45.445Z,127.33
2023-05-17T11:08:45.518Z,130.04
2023-05-17T11:09:45.578Z,130.64
2023-05-17T11:10:45.646Z,135.68
2023-05-17T11:11:45.699Z,136.04
2023-05-17T11:12:45.770Z,136.78
2023-05-17T11:13:45.815Z,139.80
2023-05-17T11:14:45.962Z,140.56
2023-05-17T11:15:45.967Z,143.01
2023-05-17T11:16:45.992Z,143.90
2023-05-17T11:17:46.118Z,145.10
2023-05-17T11:18:46.349Z,147.58
2023-05-17T11:19:46.273Z,149.24
2023-05-17T11:20:45.410Z,152.33
2023-05-17T11:21:46.318Z,153.46
2023-05-17T11:22:46.378Z,155.59
2023-05-17T11:23:45.417Z,157.25
2023-05-17T11:24:46.480Z,158.07
2023-05-17T11:25:45.548Z,157.75
2023-05-17T11:26:45.612Z,159.15
2023-05-17T11:27:45.659Z,160.59
2023-05-17T11:28:46.727Z,161.71
2023-05-17T11:29:45.769Z,163.75
2023-05-17T11:30:46.816Z,165.14
2023-05-17T11:31:45.916Z,166.20
2023-05-17T11:32:46.980Z,167.95
2023-05-17T11:33:47.038Z,169.12
2023-05-17T11:34:47.045Z,168.81
2023-05-17T11:35:47.097Z,172.65
2023-05-17T11:36:47.156Z,171.87
2023-05-17T11:37:47.211Z,174.35
2023-05-17T11:38:48.174Z,177.18
2023-05-17T11:39:46.245Z,183.38
2023-05-17T11:40:47.269Z,188.02
2023-05-17T11:41:47.245Z,188.88
2023-05-17T11:42:47.251Z,188.17
2023-05-17T11:43:47.214Z,187.77
2023-05-17T11:44:47.210Z,184.70
2023-05-17T11:45:47.214Z,185.13
2023-05-17T11:46:47.198Z,183.89
2023-05-17T11:47:47.381Z,182.79
2023-05-17T11:48:47.262Z,181.96
2023-05-17T11:49:47.166Z,183.40
2023-05-17T11:50:47.196Z,182.40
2023-05-17T11:51:47.165Z,180.92
2023-05-17T11:52:46.146Z,182.12
2023-05-17T11:53:46.156Z,181.42
2023-05-17T11:54:47.139Z,179.58
2023-05-17T11:55:47.120Z,181.02
2023-05-17T11:56:47.126Z,181.46
2023-05-17T11:57:46.118Z,180.98
2023-05-17T11:58:47.101Z,180.37
2023-05-17T11:59:46.099Z,180.93
2023-05-17T12:00:47.093Z,180.21
2023-05-17T12:01:47.098Z,179.57
2023-05-17T12:02:47.091Z,180.09
2023-05-17T12:03:47.110Z,180.50
2023-05-17T12:04:46.119Z,179.41
2023-05-17T12:05:46.086Z,181.22
2023-05-17T12:06:47.060Z,181.33
2023-05-17T12:07:47.105Z,179.49
2023-05-17T12:08:47.055Z,179.68
2023-05-17T12:09:47.036Z,182.70
2023-05-17T12:10:46.031Z,181.16
2023-05-17T12:11:46.104Z,182.33
2023-05-17T12:12:47.050Z,181.97
2023-05-17T12:13:47.039Z,182.37
2023-05-17T12:14:46.994Z,185.02
2023-05-17T12:15:47.002Z,183.61
2023-05-17T12:16:45.987Z,185.64
2023-05-17T12:17:49.293Z,185.72
2023-05-17T12:18:46.093Z,185.97
2023-05-17T12:19:46.235Z,186.41
2023-05-17T12:20:46.941Z,186.97
2023-05-17T12:21:46.939Z,187.53
2023-05-17T12:22:45.955Z,187.22
2023-05-17T12:23:48.868Z,187.40
2023-05-17T12:24:46.973Z,187.42
2023-05-17T12:25:45.913Z,184.49
2023-05-17T12:26:45.938Z,184.57
2023-05-17T12:27:45.920Z,186.02
2023-05-17T12:28:45.890Z,189.08
2023-05-17T12:29:46.909Z,187.26
2023-05-17T12:30:45.875Z,187.60
2023-05-17T12:31:45.868Z,189.70
2023-05-17T12:32:45.972Z,186.49
2023-05-17T12:33:45.892Z,185.46
2023-05-17T12:34:46.834Z,186.55
2023-05-17T12:35:46.866Z,186.84
2023-05-17T12:36:45.831Z,187.13
2023-05-17T12:37:45.810Z,188.22